KFAY/FAY METAR and TAF weather

Enter ICAO airport designator
Station Type Date Time Source
KFAY METAR 2020/01/20 15:53 UTC NOAA

KFAY 201553Z 02012KT 10SM CLR 03/M09 A3034 RMK AO2 SLP272 T00281094


Station Type Date Time Source
KFAY Decoded METAR 2020/01/20 15:53 UTC NOAA

FAYETTEVILLE REGIONAL AIRPORT , NC, United States (KFAY) 34-59N 078-53W 55M
Jan 20, 2020 - 10:53 AM EST / 2020.01.20 1553 UTC
Wind: from the NNE (020 degrees) at 14 MPH (12 KT):0
Visibility: 10 mile(s):0
Sky conditions: clear
Temperature: 37.0 F (2.8 C)
Dew Point: 15.1 F (-9.4 C)
Relative Humidity: 40%
Pressure (altimeter): 30.34 in. Hg (1027 hPa)
ob: KFAY 201553Z 02012KT 10SM CLR 03/M09 A3034 RMK AO2 SLP272 T00281094
cycle: 16

Station Type Date Time Source
KFAY TAF 2020/01/20 12:36 UTC NOAA

TAF KFAY 201133Z 2012/2112 35007KT P6SM SKC
FM202200 03006KT P6SM SKC

Example: see airport list